createdAt,value
2023-01-19T00:00:38.950Z,12.70
2023-01-19T00:05:43.860Z,11.93
2023-01-19T00:10:51.155Z,12.33
2023-01-19T00:15:59.148Z,13.70
2023-01-19T00:21:04.022Z,13.27
2023-01-19T00:26:10.692Z,12.83
2023-01-19T00:31:20.803Z,14.57
2023-01-19T00:36:26.329Z,12.10
2023-01-19T00:41:43.606Z,12.40
2023-01-19T00:46:51.116Z,12.17
2023-01-19T00:51:56.093Z,13.03
2023-01-19T00:57:00.991Z,13.37
2023-01-19T01:02:08.775Z,12.90
2023-01-19T01:07:13.768Z,12.37
2023-01-19T01:12:18.841Z,12.23
2023-01-19T01:17:26.904Z,12.90
2023-01-19T01:22:31.713Z,12.87
2023-01-19T01:27:36.572Z,14.57
2023-01-19T01:32:44.577Z,17.43
2023-01-19T01:37:49.496Z,15.07
2023-01-19T01:42:54.589Z,13.33
2023-01-19T01:48:06.102Z,13.63
2023-01-19T01:53:14.746Z,12.50
2023-01-19T01:58:20.102Z,12.80
2023-01-19T02:03:29.308Z,12.57
2023-01-19T02:08:52.535Z,13.20
2023-01-19T02:13:57.676Z,11.87
2023-01-19T02:19:05.315Z,12.10
2023-01-19T02:24:13.521Z,11.97
2023-01-19T02:29:22.913Z,12.43
2023-01-19T02:34:28.003Z,12.33
2023-01-19T02:39:39.827Z,12.20
2023-01-19T02:44:49.034Z,12.43
2023-01-19T02:49:58.477Z,11.73
2023-01-19T02:55:16.662Z,11.90
2023-01-19T03:00:36.735Z,12.27
2023-01-19T03:05:56.897Z,10.93
2023-01-19T03:11:07.286Z,12.07
2023-01-19T03:16:19.979Z,10.53
2023-01-19T03:21:29.564Z,12.60
2023-01-19T03:26:44.127Z,10.80
2023-01-19T03:31:51.965Z,10.63
2023-01-19T03:37:01.876Z,9.93
2023-01-19T03:42:14.264Z,9.70
2023-01-19T03:47:22.809Z,9.23
2023-01-19T03:52:33.530Z,9.23
2023-01-19T03:57:41.156Z,10.60
2023-01-19T04:02:46.061Z,9.80
2023-01-19T04:07:51.533Z,9.27
2023-01-19T04:13:03.836Z,9.20
2023-01-19T04:18:09.115Z,8.53
2023-01-19T04:23:14.035Z,9.13
2023-01-19T04:28:21.523Z,9.47
2023-01-19T04:33:26.710Z,8.97
2023-01-19T04:38:31.862Z,8.47
2023-01-19T04:43:39.484Z,8.43
2023-01-19T04:48:45.749Z,8.57
2023-01-19T04:53:50.822Z,9.40
2023-01-19T04:58:58.486Z,8.60
2023-01-19T05:04:05.234Z,8.53
2023-01-19T05:09:13.253Z,9.23
2023-01-19T05:14:21.748Z,10.20
2023-01-19T05:19:26.793Z,10.63
2023-01-19T05:24:32.015Z,9.40
2023-01-19T05:29:39.505Z,8.73
2023-01-19T05:34:44.506Z,9.27
2023-01-19T05:39:50.547Z,9.63
2023-01-19T05:44:59.853Z,10.90
2023-01-19T05:50:04.833Z,11.70
2023-01-19T05:55:11.187Z,23.53
2023-01-19T06:00:19.899Z,13.30
2023-01-19T06:05:32.364Z,12.57
2023-01-19T06:10:37.234Z,12.40
2023-01-19T06:15:45.474Z,11.30
2023-01-19T06:20:51.729Z,9.63
2023-01-19T06:25:57.719Z,8.10
2023-01-19T06:31:05.225Z,7.70
2023-01-19T06:36:10.686Z,9.47
2023-01-19T06:41:15.684Z,7.53
2023-01-19T06:46:23.504Z,13.40
2023-01-19T06:51:28.540Z,41.23
2023-01-19T06:56:33.437Z,28.77
2023-01-19T07:01:41.087Z,10.00
2023-01-19T07:06:46.082Z,9.63
2023-01-19T07:11:51.588Z,11.90
2023-01-19T07:17:04.109Z,9.67
2023-01-19T07:22:09.257Z,9.20
2023-01-19T07:27:16.468Z,9.00
2023-01-19T07:32:24.201Z,8.13
2023-01-19T07:37:30.331Z,9.03
2023-01-19T07:42:36.226Z,11.77
2023-01-19T07:48:07.084Z,8.00
2023-01-19T07:53:12.489Z,10.33
2023-01-19T07:58:17.472Z,7.90
2023-01-19T08:03:25.201Z,8.47
2023-01-19T08:08:31.991Z,9.47
2023-01-19T08:13:38.271Z,11.33
2023-01-19T08:18:45.789Z,12.88
2023-01-19T08:23:58.248Z,10.03
2023-01-19T08:29:05.633Z,9.37
2023-01-19T08:34:15.429Z,8.07
2023-01-19T08:39:20.517Z,9.03
2023-01-19T08:44:30.736Z,10.43
2023-01-19T08:49:41.487Z,6.03
2023-01-19T08:54:50.723Z,9.90
2023-01-19T09:00:00.345Z,9.80
2023-01-19T09:05:09.039Z,8.23
2023-01-19T09:10:16.586Z,6.60
2023-01-19T09:15:32.566Z,6.50
2023-01-19T09:20:40.443Z,5.90
2023-01-19T09:25:49.781Z,6.20
2023-01-19T09:30:55.230Z,5.43
2023-01-19T09:36:02.887Z,4.47
2023-01-19T09:41:21.172Z,3.80
2023-01-19T09:46:32.610Z,4.80
2023-01-19T09:51:46.611Z,3.93
2023-01-19T09:56:57.713Z,5.07
2023-01-19T10:02:10.793Z,4.47
2023-01-19T10:07:34.961Z,4.90
2023-01-19T10:12:55.151Z,4.70
2023-01-19T10:18:17.573Z,4.23
2023-01-19T10:23:44.351Z,4.37
2023-01-19T10:28:52.969Z,4.33
2023-01-19T10:33:57.944Z,4.47
2023-01-19T10:39:07.248Z,5.10
2023-01-19T10:44:15.465Z,4.23
2023-01-19T10:49:37.434Z,4.43
2023-01-19T10:54:49.013Z,4.40
2023-01-19T10:59:55.859Z,4.50
2023-01-19T11:05:02.574Z,3.90
2023-01-19T11:10:28.154Z,4.77
2023-01-19T11:15:36.187Z,4.10
2023-01-19T11:20:54.104Z,3.90
2023-01-19T11:26:09.583Z,4.37
2023-01-19T11:31:22.452Z,4.13
2023-01-19T11:36:29.561Z,3.90
2023-01-19T11:42:12.829Z,3.90
2023-01-19T11:47:26.751Z,3.90
2023-01-19T11:52:36.442Z,4.53
2023-01-19T11:57:52.386Z,4.27
2023-01-19T12:03:09.139Z,4.20
2023-01-19T12:08:20.913Z,4.50
2023-01-19T12:13:32.206Z,5.00
2023-01-19T12:18:43.472Z,5.43
2023-01-19T12:24:00.235Z,4.63
2023-01-19T12:29:19.902Z,4.70
2023-01-19T12:34:36.296Z,5.70
2023-01-19T12:39:51.371Z,5.50
2023-01-19T12:45:10.476Z,5.40
2023-01-19T12:50:23.504Z,5.67
2023-01-19T12:55:32.105Z,4.83
2023-01-19T13:00:43.485Z,5.10
2023-01-19T13:05:55.278Z,5.47
2023-01-19T13:11:27.286Z,5.27
2023-01-19T13:17:05.690Z,5.27
2023-01-19T13:22:40.979Z,5.27
2023-01-19T13:27:50.043Z,4.80
2023-01-19T13:32:56.144Z,5.33
2023-01-19T13:38:02.745Z,5.00
2023-01-19T13:43:20.934Z,3.87
2023-01-19T13:48:31.016Z,3.77
2023-01-19T13:53:36.775Z,3.93
2023-01-19T13:58:44.378Z,3.80
2023-01-19T14:03:53.379Z,4.13
2023-01-19T14:09:18.715Z,4.53
2023-01-19T14:14:30.034Z,3.53
2023-01-19T14:19:55.443Z,3.93
2023-01-19T14:25:30.449Z,4.10
2023-01-19T14:30:38.131Z,4.40
2023-01-19T14:35:43.720Z,4.03
2023-01-19T14:41:12.027Z,4.30
2023-01-19T14:46:27.640Z,4.70
2023-01-19T14:51:37.032Z,4.73
2023-01-19T14:56:42.455Z,4.90
2023-01-19T15:01:51.585Z,5.20
2023-01-19T15:07:00.346Z,6.13
2023-01-19T15:12:06.490Z,4.83
2023-01-19T15:17:25.443Z,5.07
2023-01-19T15:22:30.802Z,4.90
2023-01-19T15:27:37.054Z,5.27
2023-01-19T15:32:46.164Z,5.23
2023-01-19T15:37:53.049Z,5.10
2023-01-19T15:42:58.559Z,4.70
2023-01-19T15:48:11.170Z,5.63
2023-01-19T15:53:19.365Z,4.83
2023-01-19T15:58:24.410Z,5.77
2023-01-19T16:03:34.260Z,6.03
2023-01-19T16:08:41.887Z,5.33
2023-01-19T16:13:48.826Z,6.20
2023-01-19T16:18:59.500Z,5.73
2023-01-19T16:24:08.672Z,5.77
2023-01-19T16:29:17.641Z,6.03
2023-01-19T16:34:39.145Z,5.77
2023-01-19T16:39:45.884Z,6.63
2023-01-19T16:44:56.472Z,6.43
2023-01-19T16:50:09.940Z,6.23
2023-01-19T16:55:21.656Z,6.87
2023-01-19T17:00:40.349Z,6.17
2023-01-19T17:05:55.320Z,6.03
2023-01-19T17:11:03.999Z,6.10
2023-01-19T17:16:12.720Z,5.83
2023-01-19T17:21:21.993Z,6.10
2023-01-19T17:26:28.419Z,5.20
2023-01-19T17:31:36.960Z,6.30
2023-01-19T17:36:46.548Z,6.90
2023-01-19T17:41:51.799Z,5.87
2023-01-19T17:46:59.824Z,6.80
2023-01-19T17:52:10.418Z,6.37
2023-01-19T17:57:15.468Z,7.07
2023-01-19T18:02:24.479Z,6.03
2023-01-19T18:07:32.944Z,5.93
2023-01-19T18:12:38.639Z,6.03
2023-01-19T18:17:47.420Z,6.97
2023-01-19T18:22:55.400Z,6.27
2023-01-19T18:33:23.821Z,6.10
2023-01-19T18:38:35.058Z,6.00
2023-01-19T18:43:41.960Z,6.60
2023-01-19T18:48:50.063Z,5.77
2023-01-19T18:53:59.646Z,6.37
2023-01-19T18:59:11.964Z,6.67
2023-01-19T19:04:19.187Z,6.23
2023-01-19T19:09:33.985Z,6.33
2023-01-19T19:14:42.304Z,5.60
2023-01-19T19:19:49.488Z,6.83
2023-01-19T19:25:04.088Z,7.13
2023-01-19T19:30:12.956Z,8.50
2023-01-19T19:35:24.500Z,8.77
2023-01-19T19:40:34.985Z,10.70
2023-01-19T19:45:41.438Z,9.60
2023-01-19T19:50:49.156Z,10.20
2023-01-19T19:56:06.072Z,11.80
2023-01-19T20:01:21.270Z,10.03
2023-01-19T20:06:37.154Z,9.20
2023-01-19T20:11:46.941Z,12.00
2023-01-19T20:16:57.548Z,12.83
2023-01-19T20:22:03.287Z,12.60
2023-01-19T20:27:13.562Z,11.57
2023-01-19T20:32:19.106Z,10.30
2023-01-19T20:37:25.103Z,10.00
2023-01-19T20:42:32.840Z,14.67
2023-01-19T20:47:37.947Z,13.40
2023-01-19T20:52:46.433Z,9.90
2023-01-19T20:57:54.763Z,10.87
2023-01-19T21:03:06.310Z,10.90
2023-01-19T21:08:16.571Z,10.27
2023-01-19T21:13:28.727Z,11.73
2023-01-19T21:18:35.983Z,12.10
2023-01-19T21:23:41.314Z,12.13
2023-01-19T21:28:50.092Z,11.50
2023-01-19T21:33:55.173Z,11.83
2023-01-19T21:39:00.972Z,12.63
2023-01-19T21:44:09.021Z,11.63
2023-01-19T21:49:19.850Z,11.17
2023-01-19T21:54:24.811Z,13.00
2023-01-19T21:59:32.546Z,11.43
2023-01-19T22:04:37.461Z,10.97
2023-01-19T22:09:42.473Z,10.80
2023-01-19T22:14:49.941Z,10.10
2023-01-19T22:19:55.348Z,11.27
2023-01-19T22:25:00.361Z,10.77
2023-01-19T22:30:11.511Z,11.03
2023-01-19T22:35:16.942Z,10.20
2023-01-19T22:40:22.113Z,10.23
2023-01-19T22:45:32.374Z,11.23
2023-01-19T22:50:39.174Z,10.03
2023-01-19T22:55:44.085Z,9.80
2023-01-19T23:00:51.879Z,8.97
2023-01-19T23:05:56.812Z,9.10
2023-01-19T23:11:01.940Z,9.70
2023-01-19T23:16:10.645Z,9.70
2023-01-19T23:21:17.854Z,9.33
2023-01-19T23:26:23.838Z,11.40
2023-01-19T23:31:33.388Z,10.50
2023-01-19T23:36:40.884Z,11.90
2023-01-19T23:41:46.709Z,10.07
2023-01-19T23:46:54.305Z,11.90
2023-01-19T23:51:59.178Z,10.80
2023-01-19T23:57:04.107Z,9.87
